Time;durP1;ratioP1;P1;durP2;ratioP2;P2;SDS_P1;SDS_P2;PMS_P1;PMS_P2;Temp;Humidity;BMP_temperature;BMP_pressure;BME280_temperature;BME280_humidity;BME280_pressure;Samples;Min_cycle;Max_cycle;Signal;HPM_P1;HPM_P2
2021/08/27 00:00:01;;;;;;;3.40;1.98;;;17.90;64.60;;;;;;5052803;28;20033;-68
2021/08/27 00:02:27;;;;;;;3.83;2.55;;;17.90;64.70;;;;;;5041100;28;20025;-68
2021/08/27 00:04:52;;;;;;;3.88;2.40;;;17.90;64.90;;;;;;5052833;28;20412;-69
2021/08/27 00:07:18;;;;;;;3.35;2.60;;;17.90;65.10;;;;;;5053351;28;20057;-68
2021/08/27 00:09:44;;;;;;;4.82;3.40;;;17.80;65.00;;;;;;5044604;28;20033;-69
2021/08/27 00:12:10;;;;;;;4.45;3.00;;;17.80;65.20;;;;;;5052767;28;20079;-69
2021/08/27 00:14:36;;;;;;;3.45;2.33;;;17.70;65.10;;;;;;5051253;28;20040;-69
2021/08/27 00:17:01;;;;;;;5.32;3.20;;;17.70;65.10;;;;;;5052194;28;20058;-70
2021/08/27 00:19:27;;;;;;;6.35;3.20;;;17.70;65.30;;;;;;5052651;28;20083;-68
2021/08/27 00:21:53;;;;;;;6.85;2.67;;;17.70;65.50;;;;;;5045493;28;20112;-69
2021/08/27 00:24:19;;;;;;;5.00;3.28;;;17.70;65.60;;;;;;5035702;28;20059;-69
2021/08/27 00:26:45;;;;;;;3.72;2.95;;;17.70;65.70;;;;;;5052541;28;20151;-69
2021/08/27 00:29:11;;;;;;;3.72;2.97;;;17.70;65.80;;;;;;5052605;28;20048;-69
2021/08/27 00:31:36;;;;;;;5.50;3.72;;;17.70;65.80;;;;;;5052196;28;20037;-68
2021/08/27 00:34:02;;;;;;;5.60;3.45;;;17.70;65.90;;;;;;5052255;28;20033;-68
2021/08/27 00:36:28;;;;;;;5.78;3.67;;;17.70;65.80;;;;;;5052414;28;20021;-68
2021/08/27 00:38:54;;;;;;;3.67;3.10;;;17.70;65.90;;;;;;5052415;28;20071;-69
2021/08/27 00:41:20;;;;;;;4.00;3.58;;;17.60;65.70;;;;;;5051882;28;20440;-69
2021/08/27 00:43:46;;;;;;;4.57;3.55;;;17.60;65.70;;;;;;5051909;28;20029;-69
2021/08/27 00:46:12;;;;;;;6.63;3.08;;;17.60;65.60;;;;;;5052053;28;20502;-69
2021/08/27 00:48:38;;;;;;;4.63;3.47;;;17.60;65.50;;;;;;5052218;28;20549;-69
2021/08/27 00:51:05;;;;;;;4.88;3.22;;;17.60;65.30;;;;;;5052656;28;20380;-69
2021/08/27 00:53:34;;;;;;;5.13;3.42;;;17.60;65.40;;;;;;5051820;28;20508;-68
2021/08/27 00:56:02;;;;;;;3.80;2.80;;;17.60;65.30;;;;;;5051779;28;20044;-69
2021/08/27 00:58:28;;;;;;;4.05;2.80;;;17.60;65.20;;;;;;5051993;28;20036;-69
2021/08/27 01:00:54;;;;;;;4.13;2.53;;;17.60;65.20;;;;;;5051536;28;20029;-69
2021/08/27 01:03:20;;;;;;;5.78;2.30;;;17.60;65.10;;;;;;5049902;28;20043;-69
2021/08/27 01:06:11;;;;;;;5.28;2.80;;;17.60;65.00;;;;;;5051629;28;20028;-68
2021/08/27 01:08:43;;;;;;;3.05;2.17;;;17.60;65.00;;;;;;5051356;28;20033;-69
2021/08/27 01:11:24;;;;;;;3.03;2.22;;;17.60;65.00;;;;;;5051670;28;20122;-69
2021/08/27 01:14:06;;;;;;;2.70;2.08;;;17.60;65.00;;;;;;5033650;28;20029;-69
2021/08/27 01:16:58;;;;;;;5.63;2.47;;;17.60;64.80;;;;;;5050071;28;20021;-69
2021/08/27 01:20:01;;;;;;;3.08;2.35;;;17.60;64.70;;;;;;5051527;28;20451;-69
2021/08/27 01:23:07;;;;;;;4.28;2.55;;;17.60;64.60;;;;;;5049385;28;20033;-69
2021/08/27 01:25:36;;;;;;;4.55;2.50;;;17.60;64.60;;;;;;5051135;28;20033;-69
2021/08/27 01:28:04;;;;;;;2.70;2.17;;;17.60;64.70;;;;;;5051796;28;20090;-69
2021/08/27 01:30:46;;;;;;;3.40;2.40;;;17.60;64.70;;;;;;5051214;28;20045;-69
2021/08/27 01:33:16;;;;;;;3.45;2.83;;;17.60;64.90;;;;;;5039337;28;20056;-69
2021/08/27 01:35:55;;;;;;;4.15;2.60;;;17.60;64.90;;;;;;5051383;28;20028;-69
2021/08/27 01:38:43;;;;;;;4.43;2.63;;;17.60;65.00;;;;;;5051071;28;20033;-69
2021/08/27 01:41:12;;;;;;;4.28;2.30;;;17.60;65.20;;;;;;5051385;28;20031;-68
2021/08/27 01:43:40;;;;;;;3.85;2.20;;;17.60;65.20;;;;;;5050741;28;20021;-68
2021/08/27 01:46:07;;;;;;;3.38;2.38;;;17.60;65.30;;;;;;5051104;28;20025;-69
2021/08/27 01:48:37;;;;;;;5.85;2.55;;;17.60;66.50;;;;;;5051220;28;20486;-69
2021/08/27 01:51:05;;;;;;;3.15;2.10;;;17.60;66.90;;;;;;5051060;28;20052;-68
2021/08/27 01:53:32;;;;;;;3.47;2.60;;;17.50;67.10;;;;;;5051373;28;20482;-69
2021/08/27 01:56:00;;;;;;;2.70;2.33;;;17.50;67.10;;;;;;5052820;28;20037;-68
2021/08/27 01:58:27;;;;;;;4.00;2.47;;;17.50;66.90;;;;;;5055131;28;20415;-68
2021/08/27 02:00:55;;;;;;;2.70;2.05;;;17.40;67.00;;;;;;5055568;28;20020;-68
2021/08/27 02:03:21;;;;;;;4.45;2.08;;;17.40;67.10;;;;;;5048395;28;20021;-68
2021/08/27 02:05:48;;;;;;;3.22;2.03;;;17.40;67.00;;;;;;5055382;28;20036;-68
2021/08/27 02:08:16;;;;;;;2.50;2.00;;;17.40;67.20;;;;;;5056083;28;20025;-68
2021/08/27 02:10:43;;;;;;;3.63;2.17;;;17.40;67.30;;;;;;5055917;28;20048;-68
2021/08/27 02:13:10;;;;;;;6.25;2.10;;;17.30;67.30;;;;;;5056015;28;20017;-68
2021/08/27 02:15:36;;;;;;;4.00;2.30;;;17.30;67.40;;;;;;5055610;28;20033;-68
2021/08/27 02:18:02;;;;;;;2.58;1.75;;;17.30;67.20;;;;;;5055613;28;20032;-68
2021/08/27 02:20:29;;;;;;;2.85;2.13;;;17.30;67.20;;;;;;5055774;28;20049;-68
2021/08/27 02:22:58;;;;;;;3.75;2.40;;;17.30;67.30;;;;;;5055443;28;20024;-68
2021/08/27 02:25:27;;;;;;;4.10;2.35;;;17.30;67.40;;;;;;5055492;28;20029;-68
2021/08/27 02:27:54;;;;;;;2.47;1.90;;;17.30;67.50;;;;;;5055703;28;20021;-68
2021/08/27 02:30:21;;;;;;;2.38;1.65;;;17.20;67.30;;;;;;5055241;28;20449;-68
2021/08/27 02:32:49;;;;;;;3.75;1.75;;;17.20;67.30;;;;;;5055658;28;20017;-67
2021/08/27 02:35:16;;;;;;;2.90;1.60;;;17.20;67.30;;;;;;5053222;28;20159;-68
2021/08/27 02:37:44;;;;;;;2.53;1.73;;;17.20;67.20;;;;;;5051536;28;20081;-68
2021/08/27 02:40:10;;;;;;;2.67;1.52;;;17.20;67.20;;;;;;5055504;28;20067;-67
2021/08/27 02:42:37;;;;;;;2.25;1.45;;;17.20;67.00;;;;;;5054684;28;20876;-67
2021/08/27 02:45:05;;;;;;;4.97;1.45;;;17.20;67.00;;;;;;5052269;28;20032;-68
2021/08/27 02:47:31;;;;;;;2.45;1.55;;;17.10;67.00;;;;;;5042234;28;20060;-68
2021/08/27 02:49:57;;;;;;;1.40;0.90;;;17.10;67.90;;;;;;5055327;28;20114;-67
2021/08/27 02:52:34;;;;;;;2.30;1.52;;;17.10;67.10;;;;;;5055248;28;20482;-68
2021/08/27 02:55:22;;;;;;;4.85;1.80;;;17.10;67.00;;;;;;5055162;28;20409;-68
2021/08/27 02:57:54;;;;;;;2.40;0.85;;;17.10;66.70;;;;;;5055356;28;20486;-67
2021/08/27 03:00:20;;;;;;;1.67;1.10;;;17.10;66.90;;;;;;5053849;28;20212;-67
2021/08/27 03:02:47;;;;;;;2.10;1.17;;;17.10;67.00;;;;;;5051480;28;20036;-68
2021/08/27 03:05:22;;;;;;;2.00;1.38;;;17.10;67.30;;;;;;5050340;28;20069;-67
2021/08/27 03:08:03;;;;;;;3.28;1.50;;;17.10;67.30;;;;;;5031810;28;20048;-67
2021/08/27 03:10:50;;;;;;;2.65;1.10;;;17.10;67.40;;;;;;5054777;28;20082;-68
2021/08/27 03:13:32;;;;;;;1.00;0.70;;;17.10;67.40;;;;;;5054079;28;20478;-68
2021/08/27 03:16:08;;;;;;;1.20;0.98;;;17.10;67.40;;;;;;5054918;28;20021;-68
2021/08/27 03:18:54;;;;;;;1.63;1.02;;;17.20;67.50;;;;;;5054759;28;20056;-68
2021/08/27 03:21:41;;;;;;;1.40;1.05;;;17.20;68.00;;;;;;5043656;28;20044;-68
2021/08/27 03:24:21;;;;;;;2.35;1.20;;;17.20;67.30;;;;;;5048418;28;20021;-67
2021/08/27 03:26:52;;;;;;;1.50;0.80;;;17.20;67.50;;;;;;5039138;28;20025;-68
2021/08/27 03:29:21;;;;;;;3.97;1.02;;;17.20;67.40;;;;;;5054059;28;20106;-68
2021/08/27 03:31:48;;;;;;;1.05;0.70;;;17.20;66.90;;;;;;5054351;28;20028;-69
2021/08/27 03:34:14;;;;;;;1.17;0.93;;;17.20;67.00;;;;;;5053893;28;20021;-68
2021/08/27 03:36:41;;;;;;;1.45;1.00;;;17.10;67.10;;;;;;5054366;28;20074;-68
2021/08/27 03:39:08;;;;;;;6.45;1.25;;;17.20;67.10;;;;;;5054167;28;20052;-68
2021/08/27 03:41:37;;;;;;;1.92;1.17;;;17.10;66.90;;;;;;5054375;28;20025;-68
2021/08/27 03:44:04;;;;;;;1.13;0.80;;;17.10;66.80;;;;;;5054230;28;20025;-68
2021/08/27 03:46:30;;;;;;;0.98;0.73;;;17.10;66.90;;;;;;5054077;28;20045;-68
2021/08/27 03:48:56;;;;;;;2.15;1.23;;;17.10;67.10;;;;;;5053990;28;20032;-68
2021/08/27 03:51:23;;;;;;;1.65;0.90;;;17.10;67.30;;;;;;5036080;28;20163;-68
2021/08/27 03:53:52;;;;;;;3.47;1.00;;;17.00;67.00;;;;;;5054289;28;20382;-68
2021/08/27 03:56:18;;;;;;;1.02;0.80;;;17.00;67.10;;;;;;5054045;28;20115;-68
2021/08/27 03:58:45;;;;;;;3.13;0.90;;;17.00;67.10;;;;;;5053907;28;20168;-68
2021/08/27 04:01:11;;;;;;;1.60;0.80;;;17.00;67.20;;;;;;5053697;28;20103;-68
2021/08/27 04:03:37;;;;;;;1.98;0.95;;;17.00;67.30;;;;;;5046624;28;20108;-68
2021/08/27 04:06:08;;;;;;;1.60;0.70;;;17.00;67.40;;;;;;5053881;28;20025;-68
2021/08/27 04:08:36;;;;;;;0.73;0.70;;;17.00;67.10;;;;;;5053588;28;20075;-68
2021/08/27 04:11:03;;;;;;;1.10;0.90;;;17.00;67.00;;;;;;5053653;28;20052;-68
2021/08/27 04:13:28;;;;;;;3.45;0.50;;;17.00;67.00;;;;;;5053437;28;20052;-68
2021/08/27 04:15:54;;;;;;;1.77;0.80;;;17.00;67.10;;;;;;5053034;28;20051;-68
2021/08/27 04:18:20;;;;;;;1.63;0.90;;;17.00;67.10;;;;;;5052864;28;20081;-68
2021/08/27 04:20:46;;;;;;;1.95;0.95;;;17.00;67.00;;;;;;5053900;28;20033;-68
2021/08/27 04:23:12;;;;;;;1.98;0.88;;;16.90;66.80;;;;;;5053471;28;20027;-68
2021/08/27 04:25:38;;;;;;;2.50;0.77;;;16.90;66.80;;;;;;5053224;28;20178;-68
2021/08/27 04:28:04;;;;;;;1.15;0.80;;;16.90;67.10;;;;;;5039577;28;20116;-68
2021/08/27 04:30:30;;;;;;;2.60;0.95;;;16.90;67.10;;;;;;5050496;28;20737;-68
2021/08/27 04:32:56;;;;;;;3.47;0.85;;;16.90;66.90;;;;;;5050420;28;20017;-68
2021/08/27 04:35:22;;;;;;;2.60;0.73;;;16.90;66.90;;;;;;5053063;28;20021;-68
2021/08/27 04:37:47;;;;;;;2.40;1.02;;;16.90;66.70;;;;;;5051719;28;20052;-68
2021/08/27 04:40:13;;;;;;;2.97;1.60;;;16.90;66.70;;;;;;5051366;28;20122;-68
2021/08/27 04:42:40;;;;;;;4.38;1.60;;;16.80;66.70;;;;;;5052851;28;20033;-68
2021/08/27 04:45:06;;;;;;;4.35;1.60;;;16.80;66.80;;;;;;5053227;28;20374;-68
2021/08/27 04:47:32;;;;;;;3.42;1.30;;;16.80;67.00;;;;;;5052907;28;20029;-68
2021/08/27 04:49:58;;;;;;;9.77;1.38;;;16.70;66.80;;;;;;5052735;28;20017;-68
2021/08/27 04:52:24;;;;;;;3.10;1.50;;;16.70;67.00;;;;;;5050838;28;20048;-68
2021/08/27 04:54:49;;;;;;;1.70;0.98;;;16.70;67.00;;;;;;5051341;28;20032;-68
2021/08/27 04:57:15;;;;;;;6.95;1.30;;;16.70;67.10;;;;;;5053020;28;20375;-68
2021/08/27 04:59:45;;;;;;;1.20;1.00;;;16.70;67.20;;;;;;5052873;28;20036;-69
2021/08/27 05:02:12;;;;;;;4.97;1.27;;;16.70;66.80;;;;;;5046309;28;20025;-68
2021/08/27 05:04:37;;;;;;;1.90;1.13;;;16.70;66.80;;;;;;5051825;28;20027;-67
2021/08/27 05:07:04;;;;;;;1.63;0.90;;;16.70;67.00;;;;;;5050732;28;20107;-68
2021/08/27 05:09:30;;;;;;;1.08;0.85;;;16.70;66.90;;;;;;5052631;28;20378;-68
2021/08/27 05:11:55;;;;;;;3.10;1.20;;;16.70;67.00;;;;;;5052678;28;20052;-68
2021/08/27 05:14:21;;;;;;;2.05;1.10;;;16.70;68.00;;;;;;5052680;28;20382;-68
2021/08/27 05:16:47;;;;;;;3.72;0.95;;;16.70;67.30;;;;;;5052577;28;20017;-68
2021/08/27 05:19:13;;;;;;;2.03;1.20;;;16.70;67.30;;;;;;5052594;28;20025;-67
2021/08/27 05:21:39;;;;;;;2.78;0.90;;;16.70;67.20;;;;;;5052228;28;20474;-68
2021/08/27 05:24:06;;;;;;;1.02;0.88;;;16.70;67.20;;;;;;5052338;28;20147;-68
2021/08/27 05:26:32;;;;;;;2.22;1.10;;;16.70;67.30;;;;;;5039669;28;20052;-68
2021/08/27 05:28:58;;;;;;;2.47;1.40;;;16.80;67.60;;;;;;5034260;28;20048;-68
2021/08/27 05:31:24;;;;;;;3.90;1.35;;;16.80;67.60;;;;;;5050813;28;20021;-68
2021/08/27 05:33:50;;;;;;;1.90;1.45;;;16.80;67.50;;;;;;5052390;28;20048;-68
2021/08/27 05:36:16;;;;;;;3.00;1.35;;;16.80;67.30;;;;;;5052497;28;20048;-68
2021/08/27 05:38:42;;;;;;;3.00;1.13;;;16.80;67.30;;;;;;5050820;28;20021;-67
2021/08/27 05:41:08;;;;;;;5.28;1.10;;;16.80;67.60;;;;;;5051885;28;20033;-68
2021/08/27 05:43:34;;;;;;;6.07;3.28;;;16.90;68.00;;;;;;5052135;28;20033;-67
2021/08/27 05:46:00;;;;;;;3.85;2.20;;;16.90;68.20;;;;;;5051976;28;20449;-67
2021/08/27 05:48:26;;;;;;;2.67;1.80;;;17.00;68.40;;;;;;5051961;28;20032;-68
2021/08/27 05:50:52;;;;;;;2.20;1.30;;;17.10;68.10;;;;;;5051942;28;20025;-68
2021/08/27 05:53:18;;;;;;;3.55;1.77;;;17.10;67.50;;;;;;5052280;28;20089;-67
2021/08/27 05:55:43;;;;;;;3.10;1.60;;;17.10;67.00;;;;;;5034252;28;20032;-67
2021/08/27 05:58:09;;;;;;;2.22;1.52;;;17.20;67.00;;;;;;5052340;28;20533;-67
2021/08/27 06:00:35;;;;;;;4.40;1.55;;;17.20;66.80;;;;;;5050002;28;20043;-68
2021/08/27 06:03:01;;;;;;;2.28;1.30;;;17.20;66.70;;;;;;5047828;28;20071;-67
2021/08/27 06:05:27;;;;;;;1.80;1.27;;;17.30;67.00;;;;;;5050363;28;20025;-68
2021/08/27 06:07:53;;;;;;;6.28;1.35;;;17.30;67.10;;;;;;5051452;28;20389;-67
2021/08/27 06:10:19;;;;;;;1.85;1.35;;;17.30;66.90;;;;;;5051384;28;20025;-68
2021/08/27 06:12:45;;;;;;;2.83;1.02;;;17.40;66.80;;;;;;5050515;28;20020;-67
2021/08/27 06:15:13;;;;;;;1.40;1.00;;;17.40;66.90;;;;;;5050752;28;20025;-69
2021/08/27 06:17:39;;;;;;;1.83;1.48;;;17.50;66.60;;;;;;5045226;28;20025;-67
2021/08/27 06:20:06;;;;;;;2.45;1.15;;;17.50;66.40;;;;;;5051895;28;20047;-67
2021/08/27 06:22:32;;;;;;;2.00;1.30;;;17.50;66.40;;;;;;5051600;28;20115;-68
2021/08/27 06:24:58;;;;;;;0.98;0.88;;;17.60;66.10;;;;;;5051708;28;20076;-68
2021/08/27 06:27:24;;;;;;;1.55;1.13;;;17.60;66.20;;;;;;5051657;28;20163;-68
2021/08/27 06:29:49;;;;;;;2.40;1.27;;;17.70;66.60;;;;;;5033857;28;20132;-68
2021/08/27 06:32:15;;;;;;;1.20;0.93;;;17.70;66.40;;;;;;5051788;28;20049;-68
2021/08/27 06:34:41;;;;;;;2.08;0.90;;;17.90;66.50;;;;;;5040495;28;20033;-68
2021/08/27 06:37:07;;;;;;;3.13;1.10;;;18.00;66.30;;;;;;5049493;28;20028;-69
2021/08/27 06:39:33;;;;;;;3.88;1.20;;;18.20;66.10;;;;;;5051749;28;20021;-69
2021/08/27 06:41:59;;;;;;;1.80;0.93;;;18.30;65.20;;;;;;5052967;28;20032;-68
2021/08/27 06:44:25;;;;;;;1.13;1.00;;;18.40;64.50;;;;;;5054928;28;20036;-68
2021/08/27 06:46:51;;;;;;;1.67;1.13;;;18.60;64.00;;;;;;5054570;28;20035;-68
2021/08/27 06:49:17;;;;;;;2.60;1.20;;;18.70;63.80;;;;;;5043817;28;20108;-68
2021/08/27 06:51:43;;;;;;;3.80;1.35;;;18.80;64.00;;;;;;5053812;28;20467;-68
2021/08/27 06:54:09;;;;;;;2.13;1.20;;;18.80;63.20;;;;;;5054248;28;20025;-68
2021/08/27 06:56:36;;;;;;;4.03;1.33;;;18.90;62.80;;;;;;5054098;28;20417;-68
2021/08/27 06:59:02;;;;;;;2.17;1.30;;;19.00;63.00;;;;;;5054516;28;20091;-68
2021/08/27 07:01:29;;;;;;;8.85;1.88;;;19.00;62.30;;;;;;5054833;28;20108;-68
2021/08/27 07:03:55;;;;;;;2.63;1.15;;;19.00;61.80;;;;;;5055133;28;20471;-68
2021/08/27 07:06:21;;;;;;;1.33;1.00;;;19.00;61.00;;;;;;5054779;28;20021;-68
2021/08/27 07:08:47;;;;;;;1.15;1.05;;;19.00;61.00;;;;;;5054957;28;20021;-69
2021/08/27 07:11:15;;;;;;;2.45;1.15;;;19.00;60.70;;;;;;5054739;28;20021;-68
2021/08/27 07:13:43;;;;;;;2.13;1.10;;;19.00;60.80;;;;;;5036937;28;20382;-68
2021/08/27 07:16:09;;;;;;;1.77;0.90;;;19.00;60.90;;;;;;5047186;28;20445;-68
2021/08/27 07:18:35;;;;;;;1.73;1.23;;;19.00;60.90;;;;;;5054614;28;20462;-68
2021/08/27 07:21:01;;;;;;;2.13;1.40;;;19.00;60.60;;;;;;5054433;28;20033;-68
2021/08/27 07:23:26;;;;;;;1.70;0.85;;;19.00;60.80;;;;;;5054402;28;20025;-68
2021/08/27 07:25:52;;;;;;;4.95;1.10;;;19.00;61.10;;;;;;5054672;28;20060;-68
2021/08/27 07:28:18;;;;;;;1.70;1.05;;;19.00;61.20;;;;;;5036388;28;20040;-68
2021/08/27 07:30:44;;;;;;;3.38;1.40;;;19.10;61.60;;;;;;5036259;28;20082;-68
2021/08/27 07:33:10;;;;;;;1.80;1.05;;;19.20;61.40;;;;;;5054183;28;20470;-68
2021/08/27 07:35:36;;;;;;;1.73;1.10;;;19.40;61.30;;;;;;5054447;28;20025;-68
2021/08/27 07:38:02;;;;;;;2.35;1.30;;;19.60;61.40;;;;;;5054474;28;20025;-68
2021/08/27 07:40:28;;;;;;;3.03;1.13;;;19.80;60.00;;;;;;5036449;28;20028;-68
2021/08/27 07:42:54;;;;;;;4.72;1.30;;;19.90;59.30;;;;;;5054243;28;20029;-68
2021/08/27 07:45:20;;;;;;;2.42;1.13;;;20.10;58.90;;;;;;5054352;28;20105;-68
2021/08/27 07:47:46;;;;;;;1.67;0.95;;;20.20;58.30;;;;;;5052152;28;20041;-68
2021/08/27 07:50:14;;;;;;;4.50;1.23;;;20.20;58.00;;;;;;5053964;28;20079;-69
2021/08/27 07:52:40;;;;;;;2.25;1.10;;;20.30;58.20;;;;;;5053164;28;20017;-69
2021/08/27 07:55:07;;;;;;;2.80;1.52;;;20.30;57.50;;;;;;5053494;28;20020;-69
2021/08/27 07:57:33;;;;;;;1.90;1.00;;;20.30;57.20;;;;;;5053849;28;20028;-69
2021/08/27 07:59:59;;;;;;;0.75;0.75;;;20.40;57.40;;;;;;5053465;28;20027;-69
2021/08/27 08:02:25;;;;;;;3.10;1.50;;;20.50;57.50;;;;;;5053523;28;20021;-69
2021/08/27 08:04:51;;;;;;;2.25;1.05;;;20.60;56.90;;;;;;5035923;28;20359;-69
2021/08/27 08:07:16;;;;;;;1.33;0.98;;;20.70;57.40;;;;;;5056526;28;20033;-69
2021/08/27 08:09:42;;;;;;;4.13;1.45;;;20.80;56.90;;;;;;5053053;28;20147;-69
2021/08/27 08:12:08;;;;;;;3.53;1.20;;;20.90;56.10;;;;;;5053516;28;20021;-69
2021/08/27 08:14:34;;;;;;;1.40;1.20;;;21.00;56.50;;;;;;5035122;28;20486;-69
2021/08/27 08:17:00;;;;;;;2.42;1.30;;;21.10;56.10;;;;;;5035136;28;20025;-70
2021/08/27 08:19:26;;;;;;;3.15;1.00;;;21.20;55.20;;;;;;5053342;28;20459;-69
2021/08/27 08:21:52;;;;;;;1.70;0.93;;;21.20;53.70;;;;;;5053450;28;20500;-69
2021/08/27 08:24:17;;;;;;;2.78;1.17;;;21.30;53.90;;;;;;5037099;28;20046;-69
2021/08/27 08:26:43;;;;;;;3.30;1.10;;;21.30;54.20;;;;;;5053773;28;20033;-69
2021/08/27 08:29:09;;;;;;;0.93;0.70;;;21.30;53.60;;;;;;5034805;28;20045;-69
2021/08/27 08:31:35;;;;;;;1.23;0.80;;;21.30;53.50;;;;;;5053186;28;20687;-70
2021/08/27 08:34:01;;;;;;;1.73;0.85;;;21.30;53.80;;;;;;5053076;28;20021;-69
2021/08/27 08:36:27;;;;;;;2.05;0.90;;;21.30;54.40;;;;;;5053144;28;20017;-70
2021/08/27 08:38:53;;;;;;;1.33;0.90;;;21.30;54.80;;;;;;5053128;28;20524;-70
2021/08/27 08:41:20;;;;;;;2.08;1.10;;;21.30;54.20;;;;;;5035158;28;20421;-70
2021/08/27 08:43:48;;;;;;;1.88;1.20;;;21.30;54.70;;;;;;5052741;28;20056;-69
2021/08/27 08:46:14;;;;;;;3.80;1.45;;;21.30;56.30;;;;;;5053010;28;20044;-69
2021/08/27 08:48:44;;;;;;;1.77;0.95;;;21.30;55.80;;;;;;5045776;28;20064;-69
2021/08/27 08:51:11;;;;;;;3.10;1.40;;;21.20;55.70;;;;;;5052520;28;20029;-69
2021/08/27 08:53:40;;;;;;;1.70;0.80;;;21.10;55.00;;;;;;5038179;28;20566;-69
2021/08/27 08:56:09;;;;;;;1.25;0.98;;;21.10;55.70;;;;;;5042761;28;20024;-71
2021/08/27 08:58:35;;;;;;;3.40;1.42;;;21.00;55.60;;;;;;5052868;28;20237;-71
2021/08/27 09:01:02;;;;;;;4.95;0.98;;;21.00;55.90;;;;;;5052601;28;20052;-71
2021/08/27 09:03:28;;;;;;;1.52;1.15;;;21.00;56.00;;;;;;5051961;28;20028;-71
2021/08/27 09:05:54;;;;;;;1.70;1.10;;;21.00;55.40;;;;;;5052722;28;20474;-71
2021/08/27 09:08:33;;;;;;;2.78;1.23;;;21.00;55.00;;;;;;5052251;28;20095;-71
2021/08/27 09:10:59;;;;;;;1.20;0.90;;;21.00;54.50;;;;;;5051655;28;20036;-72
2021/08/27 09:13:32;;;;;;;1.83;1.02;;;21.10;54.50;;;;;;5052258;28;20021;-72
2021/08/27 09:16:10;;;;;;;2.40;0.93;;;21.10;55.00;;;;;;5052603;28;20028;-71
2021/08/27 09:18:47;;;;;;;2.00;1.13;;;21.30;54.70;;;;;;5052374;28;20029;-71
2021/08/27 09:21:35;;;;;;;3.00;1.00;;;21.50;54.20;;;;;;5052607;28;20028;-71
2021/08/27 09:24:19;;;;;;;4.18;0.80;;;21.70;53.30;;;;;;5046967;28;20032;-71
2021/08/27 09:26:51;;;;;;;2.50;1.10;;;21.70;53.20;;;;;;5019030;28;20029;-71
2021/08/27 09:29:42;;;;;;;1.55;1.00;;;21.80;53.00;;;;;;5051887;28;20039;-71
2021/08/27 09:32:30;;;;;;;2.35;1.15;;;21.90;51.90;;;;;;5052123;28;20017;-71
2021/08/27 09:35:09;;;;;;;1.65;1.05;;;22.00;52.60;;;;;;5049782;28;20048;-71
2021/08/27 09:37:54;;;;;;;3.80;1.00;;;22.00;51.50;;;;;;5052427;28;20027;-71
2021/08/27 09:40:27;;;;;;;1.30;0.80;;;22.00;51.30;;;;;;5052119;28;20029;-71
2021/08/27 09:42:55;;;;;;;3.92;0.98;;;22.00;51.10;;;;;;5052523;28;20100;-71
2021/08/27 09:45:44;;;;;;;2.60;0.88;;;22.00;51.20;;;;;;5041366;28;20079;-71
2021/08/27 09:48:12;;;;;;;6.55;0.95;;;22.00;51.00;;;;;;5050622;28;20052;-71
2021/08/27 09:50:41;;;;;;;2.38;1.55;;;22.10;50.40;;;;;;5051456;28;20025;-71
2021/08/27 09:53:08;;;;;;;2.60;1.27;;;22.20;50.40;;;;;;5051311;28;20043;-71
2021/08/27 09:55:36;;;;;;;2.78;1.08;;;22.30;49.00;;;;;;5052118;28;20014;-71
2021/08/27 09:58:10;;;;;;;2.10;0.88;;;22.30;48.70;;;;;;5052137;28;20025;-71
2021/08/27 10:00:40;;;;;;;;;;;22.40;49.50;;;;;;5052773;28;20060;-71
2021/08/27 10:03:20;;;;;;;2.28;0.93;;;22.40;51.00;;;;;;5034181;28;19912;-72
2021/08/27 10:05:48;;;;;;;5.05;2.20;;;22.50;50.00;;;;;;5052125;28;20025;-72
2021/08/27 10:08:28;;;;;;;5.45;2.95;;;22.60;49.50;;;;;;5052028;28;20029;-71
2021/08/27 10:10:57;;;;;;;4.10;1.90;;;22.60;49.40;;;;;;5036919;28;20412;-71
2021/08/27 10:13:25;;;;;;;3.25;1.67;;;22.70;48.80;;;;;;5037906;28;20033;-71
2021/08/27 10:15:53;;;;;;;4.78;1.45;;;22.60;49.50;;;;;;5051524;28;20027;-70
2021/08/27 10:18:18;;;;;;;1.48;0.90;;;22.50;54.30;;;;;;5055189;28;20024;-70
2021/08/27 10:20:46;;;;;;;4.03;1.17;;;22.30;54.80;;;;;;5052107;28;20119;-70
2021/08/27 10:23:19;;;;;;;2.78;1.35;;;22.00;55.20;;;;;;5052522;28;20029;-69
2021/08/27 10:25:47;;;;;;;4.90;1.55;;;21.70;55.70;;;;;;5046389;28;20025;-70
2021/08/27 10:28:14;;;;;;;3.42;1.20;;;21.50;56.60;;;;;;5050370;28;20033;-69
2021/08/27 10:30:49;;;;;;;3.45;1.33;;;21.40;57.70;;;;;;5059232;28;20577;-70
2021/08/27 10:33:42;;;;;;;2.25;1.17;;;21.30;57.70;;;;;;5054664;28;20021;-70
2021/08/27 10:36:20;;;;;;;8.18;1.25;;;21.30;57.50;;;;;;5054379;28;20021;-70
2021/08/27 10:38:46;;;;;;;3.40;1.55;;;21.30;56.80;;;;;;5038532;28;20525;-70
2021/08/27 10:41:15;;;;;;;3.20;1.10;;;21.30;57.00;;;;;;5054436;28;20119;-70
2021/08/27 10:43:57;;;;;;;4.35;1.38;;;21.40;58.00;;;;;;5054472;28;20398;-70
2021/08/27 10:46:43;;;;;;;1.58;1.20;;;21.50;58.30;;;;;;5055064;28;20362;-70
2021/08/27 10:49:09;;;;;;;2.08;0.90;;;21.70;57.70;;;;;;5046908;28;20025;-70
2021/08/27 10:51:39;;;;;;;4.10;1.10;;;21.90;58.10;;;;;;5054262;28;20021;-71
2021/08/27 10:54:07;;;;;;;2.58;1.10;;;22.10;55.60;;;;;;5036418;28;20025;-70
2021/08/27 10:56:49;;;;;;;2.63;1.13;;;22.20;54.20;;;;;;5053823;28;20021;-70
2021/08/27 10:59:15;;;;;;;2.25;0.93;;;22.20;54.70;;;;;;5054036;28;20021;-70
2021/08/27 11:01:43;;;;;;;1.98;1.08;;;22.30;55.80;;;;;;5054111;28;20025;-70
2021/08/27 11:04:39;;;;;;;4.57;1.27;;;22.20;53.20;;;;;;5054597;28;20363;-70
2021/08/27 11:07:16;;;;;;;1.85;0.70;;;22.30;53.70;;;;;;5054142;28;20045;-76
2021/08/27 11:09:59;;;;;;;1.83;0.93;;;22.30;54.10;;;;;;5054536;28;20029;-72
2021/08/27 11:12:30;;;;;;;1.70;1.10;;;22.30;53.90;;;;;;5055102;28;20108;-72
2021/08/27 11:15:27;;;;;;;4.75;0.82;;;22.30;53.60;;;;;;5054273;28;20017;-72
2021/08/27 11:18:15;;;;;;;2.22;1.08;;;22.40;52.40;;;;;;5030550;28;20505;-72
2021/08/27 11:20:41;;;;;;;1.27;1.05;;;22.50;52.40;;;;;;5037856;28;20032;-72
2021/08/27 11:23:08;;;;;;;2.17;1.20;;;22.60;52.40;;;;;;5050661;28;20032;-72
2021/08/27 11:25:34;;;;;;;2.47;1.25;;;22.60;52.90;;;;;;5053832;28;20083;-72
2021/08/27 11:28:12;;;;;;;1.95;0.88;;;22.70;52.40;;;;;;5052275;28;20033;-72
2021/08/27 11:31:00;;;;;;;3.30;1.08;;;22.70;50.70;;;;;;5041293;28;20081;-72
2021/08/27 11:33:53;;;;;;;4.53;1.45;;;22.80;52.00;;;;;;5053383;28;20033;-72
2021/08/27 11:36:20;;;;;;;2.08;1.05;;;22.90;52.80;;;;;;5053612;28;20025;-71
2021/08/27 11:38:54;;;;;;;2.97;1.33;;;23.00;52.80;;;;;;5053481;28;20013;-71
2021/08/27 11:41:23;;;;;;;1.83;0.90;;;23.20;52.00;;;;;;5046942;28;20079;-71
2021/08/27 11:44:01;;;;;;;2.88;1.45;;;23.30;52.30;;;;;;5052564;28;20033;-71
2021/08/27 11:46:28;;;;;;;2.35;1.10;;;23.40;51.30;;;;;;5051551;28;20025;-72
2021/08/27 11:49:04;;;;;;;1.85;1.13;;;23.40;50.70;;;;;;5053548;28;20578;-73
2021/08/27 11:51:35;;;;;;;1.83;0.95;;;23.40;50.90;;;;;;5053800;28;20029;-73
2021/08/27 11:54:22;;;;;;;3.22;1.52;;;23.40;50.10;;;;;;5036366;28;20071;-74
2021/08/27 11:56:52;;;;;;;5.55;1.40;;;23.40;51.60;;;;;;5038555;28;20558;-74
2021/08/27 11:59:23;;;;;;;2.25;0.70;;;23.50;51.00;;;;;;5041568;28;20052;-74
2021/08/27 12:01:49;;;;;;;1.65;0.80;;;23.70;51.00;;;;;;5054004;28;20021;-74
2021/08/27 12:04:42;;;;;;;2.45;1.02;;;23.90;51.50;;;;;;5053882;28;20096;-74
2021/08/27 12:07:11;;;;;;;2.42;1.00;;;24.10;51.10;;;;;;5038080;28;20036;-74
2021/08/27 12:09:38;;;;;;;3.88;0.95;;;24.20;49.20;;;;;;5053586;28;20037;-74
2021/08/27 12:12:05;;;;;;;3.35;1.50;;;24.30;48.20;;;;;;5053636;28;20025;-74
2021/08/27 12:14:48;;;;;;;3.13;1.05;;;24.20;47.80;;;;;;5053458;28;20458;-74
2021/08/27 12:17:21;;;;;;;3.50;0.95;;;24.20;47.70;;;;;;5053496;28;20101;-74
2021/08/27 12:19:48;;;;;;;;;;;24.20;48.20;;;;;;5053600;28;20024;-74
2021/08/27 12:22:16;;;;;;;1.27;0.82;;;24.20;49.70;;;;;;5053447;28;19904;-74
2021/08/27 12:24:42;;;;;;;3.50;1.20;;;24.10;48.60;;;;;;5043111;28;20021;-74
2021/08/27 12:27:08;;;;;;;2.03;1.00;;;24.00;48.10;;;;;;5053385;28;20068;-74
2021/08/27 12:29:34;;;;;;;1.77;1.25;;;23.90;48.00;;;;;;5052881;28;20049;-74
2021/08/27 12:32:00;;;;;;;1.35;0.90;;;23.80;47.30;;;;;;5053150;28;20036;-74
2021/08/27 12:34:26;;;;;;;1.90;0.90;;;23.60;46.80;;;;;;5052951;28;20473;-74
2021/08/27 12:36:52;;;;;;;1.23;0.95;;;23.40;46.20;;;;;;5053306;28;20029;-74
2021/08/27 12:39:18;;;;;;;2.70;1.50;;;23.20;47.10;;;;;;5052944;28;20155;-74
2021/08/27 12:41:44;;;;;;;2.25;1.10;;;23.10;47.80;;;;;;5053089;28;20441;-74
2021/08/27 12:44:12;;;;;;;3.47;1.27;;;23.00;47.80;;;;;;5053440;28;20028;-74
2021/08/27 12:46:44;;;;;;;1.90;1.20;;;22.90;46.90;;;;;;5052967;28;20542;-74
2021/08/27 12:49:31;;;;;;;5.50;1.80;;;22.80;47.10;;;;;;5052993;28;20098;-74
2021/08/27 12:51:58;;;;;;;2.72;1.42;;;22.70;47.50;;;;;;5021213;28;20029;-74
2021/08/27 12:54:25;;;;;;;4.15;1.30;;;22.60;47.40;;;;;;5050720;28;20413;-74
2021/08/27 12:57:03;;;;;;;2.90;1.30;;;22.60;48.20;;;;;;5034980;28;20355;-74
2021/08/27 12:59:29;;;;;;;2.72;1.30;;;22.70;48.90;;;;;;5034910;28;20116;-74